sensor_id;sensor_type;location;lat;lon;timestamp;P1;durP1;ratioP1;P2;durP2;ratioP2
15381;SDS011;7789;51.364;12.358;2022-09-11T00:03:29;5.70;;;4.25;;
15381;SDS011;7789;51.364;12.358;2022-09-11T00:08:33;5.43;;;4.63;;
15381;SDS011;7789;51.364;12.358;2022-09-11T00:13:37;6.25;;;5.13;;
15381;SDS011;7789;51.364;12.358;2022-09-11T00:18:43;6.43;;;5.82;;
15381;SDS011;7789;51.364;12.358;2022-09-11T00:23:54;7.85;;;4.90;;
15381;SDS011;7789;51.364;12.358;2022-09-11T00:28:58;5.22;;;4.65;;
15381;SDS011;7789;51.364;12.358;2022-09-11T00:34:02;6.45;;;4.50;;
15381;SDS011;7789;51.364;12.358;2022-09-11T00:39:09;5.13;;;4.05;;
15381;SDS011;7789;51.364;12.358;2022-09-11T00:50:08;5.88;;;4.32;;
15381;SDS011;7789;51.364;12.358;2022-09-11T00:55:17;4.55;;;3.85;;
15381;SDS011;7789;51.364;12.358;2022-09-11T01:00:25;4.35;;;3.95;;
15381;SDS011;7789;51.364;12.358;2022-09-11T01:05:30;4.32;;;3.47;;
15381;SDS011;7789;51.364;12.358;2022-09-11T01:10:44;4.43;;;3.42;;
15381;SDS011;7789;51.364;12.358;2022-09-11T01:16:02;3.72;;;3.17;;
15381;SDS011;7789;51.364;12.358;2022-09-11T01:21:34;3.60;;;3.28;;
15381;SDS011;7789;51.364;12.358;2022-09-11T01:27:06;5.95;;;3.60;;
15381;SDS011;7789;51.364;12.358;2022-09-11T01:32:22;3.63;;;2.90;;
15381;SDS011;7789;51.364;12.358;2022-09-11T01:37:39;3.20;;;2.63;;
15381;SDS011;7789;51.364;12.358;2022-09-11T01:42:50;2.90;;;2.55;;
15381;SDS011;7789;51.364;12.358;2022-09-11T01:48:06;3.88;;;2.90;;
15381;SDS011;7789;51.364;12.358;2022-09-11T01:53:13;3.05;;;2.75;;
15381;SDS011;7789;51.364;12.358;2022-09-11T01:58:23;3.33;;;2.50;;
15381;SDS011;7789;51.364;12.358;2022-09-11T02:03:32;3.47;;;2.30;;
15381;SDS011;7789;51.364;12.358;2022-09-11T02:08:41;3.47;;;2.40;;
15381;SDS011;7789;51.364;12.358;2022-09-11T02:13:51;4.70;;;2.75;;
15381;SDS011;7789;51.364;12.358;2022-09-11T02:19:03;3.10;;;2.80;;
15381;SDS011;7789;51.364;12.358;2022-09-11T02:24:07;3.63;;;2.80;;
15381;SDS011;7789;51.364;12.358;2022-09-11T02:29:13;5.00;;;3.20;;
15381;SDS011;7789;51.364;12.358;2022-09-11T02:34:23;6.72;;;3.08;;
15381;SDS011;7789;51.364;12.358;2022-09-11T02:45:22;4.93;;;3.45;;
15381;SDS011;7789;51.364;12.358;2022-09-11T02:50:38;5.03;;;3.25;;
15381;SDS011;7789;51.364;12.358;2022-09-11T02:55:51;4.47;;;4.03;;
15381;SDS011;7789;51.364;12.358;2022-09-11T03:01:03;5.40;;;3.88;;
15381;SDS011;7789;51.364;12.358;2022-09-11T03:06:10;3.92;;;3.53;;
15381;SDS011;7789;51.364;12.358;2022-09-11T03:11:18;4.63;;;3.53;;
15381;SDS011;7789;51.364;12.358;2022-09-11T03:16:23;4.25;;;3.83;;
15381;SDS011;7789;51.364;12.358;2022-09-11T03:21:28;4.95;;;4.00;;
15381;SDS011;7789;51.364;12.358;2022-09-11T03:26:34;4.57;;;3.85;;
15381;SDS011;7789;51.364;12.358;2022-09-11T03:31:39;5.95;;;4.40;;
15381;SDS011;7789;51.364;12.358;2022-09-11T03:36:43;5.68;;;5.03;;
15381;SDS011;7789;51.364;12.358;2022-09-11T03:41:49;5.07;;;4.60;;
15381;SDS011;7789;51.364;12.358;2022-09-11T03:46:57;7.80;;;5.40;;
15381;SDS011;7789;51.364;12.358;2022-09-11T03:52:01;6.00;;;5.05;;
15381;SDS011;7789;51.364;12.358;2022-09-11T03:57:07;6.72;;;6.03;;
15381;SDS011;7789;51.364;12.358;2022-09-11T04:02:15;6.90;;;5.55;;
15381;SDS011;7789;51.364;12.358;2022-09-11T04:07:19;5.88;;;5.25;;
15381;SDS011;7789;51.364;12.358;2022-09-11T04:12:23;9.02;;;5.72;;
15381;SDS011;7789;51.364;12.358;2022-09-11T04:17:29;6.43;;;5.25;;
15381;SDS011;7789;51.364;12.358;2022-09-11T04:22:38;5.80;;;5.15;;
15381;SDS011;7789;51.364;12.358;2022-09-11T04:27:46;6.57;;;5.20;;
15381;SDS011;7789;51.364;12.358;2022-09-11T04:32:54;8.25;;;6.03;;
15381;SDS011;7789;51.364;12.358;2022-09-11T04:38:00;6.65;;;5.50;;
15381;SDS011;7789;51.364;12.358;2022-09-11T04:43:04;5.63;;;5.13;;
15381;SDS011;7789;51.364;12.358;2022-09-11T04:48:13;7.35;;;5.25;;
15381;SDS011;7789;51.364;12.358;2022-09-11T04:53:17;6.45;;;5.40;;
15381;SDS011;7789;51.364;12.358;2022-09-11T04:58:21;6.20;;;5.38;;
15381;SDS011;7789;51.364;12.358;2022-09-11T05:03:27;7.45;;;6.45;;
15381;SDS011;7789;51.364;12.358;2022-09-11T05:08:32;5.80;;;5.30;;
15381;SDS011;7789;51.364;12.358;2022-09-11T05:13:37;6.80;;;6.00;;
15381;SDS011;7789;51.364;12.358;2022-09-11T05:18:49;7.28;;;5.57;;
15381;SDS011;7789;51.364;12.358;2022-09-11T05:23:54;7.70;;;6.55;;
15381;SDS011;7789;51.364;12.358;2022-09-11T05:29:04;6.97;;;6.05;;
15381;SDS011;7789;51.364;12.358;2022-09-11T05:34:14;10.30;;;7.68;;
15381;SDS011;7789;51.364;12.358;2022-09-11T05:39:21;7.75;;;7.00;;
15381;SDS011;7789;51.364;12.358;2022-09-11T05:44:26;8.13;;;7.32;;
15381;SDS011;7789;51.364;12.358;2022-09-11T05:49:37;7.70;;;6.93;;
15381;SDS011;7789;51.364;12.358;2022-09-11T05:54:49;9.40;;;7.43;;
15381;SDS011;7789;51.364;12.358;2022-09-11T05:59:54;8.02;;;7.07;;
15381;SDS011;7789;51.364;12.358;2022-09-11T06:04:59;7.40;;;6.45;;
15381;SDS011;7789;51.364;12.358;2022-09-11T06:10:03;8.20;;;7.40;;
15381;SDS011;7789;51.364;12.358;2022-09-11T06:15:07;9.05;;;8.18;;
15381;SDS011;7789;51.364;12.358;2022-09-11T06:20:33;10.98;;;9.88;;
15381;SDS011;7789;51.364;12.358;2022-09-11T06:25:37;11.35;;;9.65;;
15381;SDS011;7789;51.364;12.358;2022-09-11T06:30:40;12.95;;;11.40;;
15381;SDS011;7789;51.364;12.358;2022-09-11T06:35:48;14.50;;;13.10;;
15381;SDS011;7789;51.364;12.358;2022-09-11T06:41:00;19.33;;;14.13;;
15381;SDS011;7789;51.364;12.358;2022-09-11T06:46:05;13.52;;;11.10;;
15381;SDS011;7789;51.364;12.358;2022-09-11T06:51:13;12.60;;;11.27;;
15381;SDS011;7789;51.364;12.358;2022-09-11T06:56:18;14.77;;;12.57;;
15381;SDS011;7789;51.364;12.358;2022-09-11T07:01:23;15.05;;;11.73;;
15381;SDS011;7789;51.364;12.358;2022-09-11T07:06:28;14.45;;;12.10;;
15381;SDS011;7789;51.364;12.358;2022-09-11T07:11:32;15.10;;;12.55;;
15381;SDS011;7789;51.364;12.358;2022-09-11T07:16:37;14.00;;;11.73;;
15381;SDS011;7789;51.364;12.358;2022-09-11T07:21:43;16.45;;;11.57;;
15381;SDS011;7789;51.364;12.358;2022-09-11T07:26:48;14.00;;;11.15;;
15381;SDS011;7789;51.364;12.358;2022-09-11T07:31:55;12.10;;;10.20;;
15381;SDS011;7789;51.364;12.358;2022-09-11T07:37:02;13.85;;;9.98;;
15381;SDS011;7789;51.364;12.358;2022-09-11T07:42:06;13.75;;;10.60;;
15381;SDS011;7789;51.364;12.358;2022-09-11T07:47:11;13.10;;;9.88;;
15381;SDS011;7789;51.364;12.358;2022-09-11T07:52:18;14.15;;;10.25;;
15381;SDS011;7789;51.364;12.358;2022-09-11T07:57:24;12.95;;;10.82;;
15381;SDS011;7789;51.364;12.358;2022-09-11T08:02:32;14.20;;;10.90;;
15381;SDS011;7789;51.364;12.358;2022-09-11T08:07:41;12.50;;;10.75;;
15381;SDS011;7789;51.364;12.358;2022-09-11T08:12:45;14.40;;;10.00;;
15381;SDS011;7789;51.364;12.358;2022-09-11T08:17:49;12.82;;;9.60;;
15381;SDS011;7789;51.364;12.358;2022-09-11T08:22:58;11.00;;;8.77;;
15381;SDS011;7789;51.364;12.358;2022-09-11T08:28:02;11.15;;;8.52;;
15381;SDS011;7789;51.364;12.358;2022-09-11T08:33:08;11.68;;;7.82;;
15381;SDS011;7789;51.364;12.358;2022-09-11T08:38:17;8.25;;;7.00;;
15381;SDS011;7789;51.364;12.358;2022-09-11T08:43:21;8.93;;;7.88;;
15381;SDS011;7789;51.364;12.358;2022-09-11T08:48:31;6.95;;;6.25;;
15381;SDS011;7789;51.364;12.358;2022-09-11T08:53:42;8.27;;;6.25;;
15381;SDS011;7789;51.364;12.358;2022-09-11T08:58:49;10.18;;;6.25;;
15381;SDS011;7789;51.364;12.358;2022-09-11T09:04:14;6.65;;;5.40;;
15381;SDS011;7789;51.364;12.358;2022-09-11T09:09:49;6.90;;;4.95;;
15381;SDS011;7789;51.364;12.358;2022-09-11T09:15:08;7.03;;;4.85;;
15381;SDS011;7789;51.364;12.358;2022-09-11T09:20:20;6.03;;;4.95;;
15381;SDS011;7789;51.364;12.358;2022-09-11T09:25:32;5.82;;;5.22;;
15381;SDS011;7789;51.364;12.358;2022-09-11T09:30:40;7.68;;;5.80;;
15381;SDS011;7789;51.364;12.358;2022-09-11T09:35:52;6.00;;;5.28;;
15381;SDS011;7789;51.364;12.358;2022-09-11T09:41:05;6.28;;;5.65;;
15381;SDS011;7789;51.364;12.358;2022-09-11T09:46:20;6.90;;;6.20;;
15381;SDS011;7789;51.364;12.358;2022-09-11T09:51:36;7.70;;;5.60;;
15381;SDS011;7789;51.364;12.358;2022-09-11T09:56:45;6.70;;;5.47;;
15381;SDS011;7789;51.364;12.358;2022-09-11T10:02:02;5.50;;;5.00;;
15381;SDS011;7789;51.364;12.358;2022-09-11T10:07:06;4.20;;;3.80;;
15381;SDS011;7789;51.364;12.358;2022-09-11T10:12:15;5.22;;;4.72;;
15381;SDS011;7789;51.364;12.358;2022-09-11T10:17:29;8.60;;;5.40;;
15381;SDS011;7789;51.364;12.358;2022-09-11T10:22:38;6.80;;;5.57;;
15381;SDS011;7789;51.364;12.358;2022-09-11T10:28:02;8.45;;;6.50;;
15381;SDS011;7789;51.364;12.358;2022-09-11T10:33:14;7.00;;;6.00;;
15381;SDS011;7789;51.364;12.358;2022-09-11T10:38:26;8.25;;;6.03;;
15381;SDS011;7789;51.364;12.358;2022-09-11T10:43:51;9.88;;;7.57;;
15381;SDS011;7789;51.364;12.358;2022-09-11T10:49:14;9.32;;;8.32;;
15381;SDS011;7789;51.364;12.358;2022-09-11T10:54:24;9.73;;;8.63;;
15381;SDS011;7789;51.364;12.358;2022-09-11T10:59:43;9.23;;;8.15;;
15381;SDS011;7789;51.364;12.358;2022-09-11T11:04:59;10.93;;;8.32;;
15381;SDS011;7789;51.364;12.358;2022-09-11T11:10:12;12.15;;;9.57;;
15381;SDS011;7789;51.364;12.358;2022-09-11T11:15:29;13.68;;;10.05;;
15381;SDS011;7789;51.364;12.358;2022-09-11T11:20:49;15.98;;;11.00;;
15381;SDS011;7789;51.364;12.358;2022-09-11T11:26:03;17.48;;;12.90;;
15381;SDS011;7789;51.364;12.358;2022-09-11T11:31:24;14.10;;;11.35;;
15381;SDS011;7789;51.364;12.358;2022-09-11T11:36:45;15.15;;;11.40;;
15381;SDS011;7789;51.364;12.358;2022-09-11T11:41:59;18.20;;;12.18;;
15381;SDS011;7789;51.364;12.358;2022-09-11T11:47:11;18.10;;;12.30;;
15381;SDS011;7789;51.364;12.358;2022-09-11T11:52:23;17.45;;;13.18;;
15381;SDS011;7789;51.364;12.358;2022-09-11T11:57:37;16.95;;;12.70;;
15381;SDS011;7789;51.364;12.358;2022-09-11T12:02:49;19.98;;;14.43;;
15381;SDS011;7789;51.364;12.358;2022-09-11T12:07:57;23.05;;;14.00;;
15381;SDS011;7789;51.364;12.358;2022-09-11T12:13:02;19.40;;;15.05;;
15381;SDS011;7789;51.364;12.358;2022-09-11T12:18:20;17.60;;;13.68;;
15381;SDS011;7789;51.364;12.358;2022-09-11T12:23:31;17.27;;;13.90;;
15381;SDS011;7789;51.364;12.358;2022-09-11T12:28:40;15.38;;;13.07;;
15381;SDS011;7789;51.364;12.358;2022-09-11T12:33:57;18.73;;;15.30;;
15381;SDS011;7789;51.364;12.358;2022-09-11T12:39:13;16.08;;;13.10;;
15381;SDS011;7789;51.364;12.358;2022-09-11T12:44:28;14.25;;;10.88;;
15381;SDS011;7789;51.364;12.358;2022-09-11T12:49:38;17.35;;;11.32;;
15381;SDS011;7789;51.364;12.358;2022-09-11T12:54:45;13.13;;;10.00;;
15381;SDS011;7789;51.364;12.358;2022-09-11T12:59:50;12.52;;;10.55;;
15381;SDS011;7789;51.364;12.358;2022-09-11T13:04:57;11.38;;;9.02;;
15381;SDS011;7789;51.364;12.358;2022-09-11T13:10:04;12.40;;;9.82;;
15381;SDS011;7789;51.364;12.358;2022-09-11T13:20:39;9.73;;;8.13;;
15381;SDS011;7789;51.364;12.358;2022-09-11T13:25:43;9.77;;;7.47;;
15381;SDS011;7789;51.364;12.358;2022-09-11T13:30:51;12.13;;;8.23;;
15381;SDS011;7789;51.364;12.358;2022-09-11T13:36:04;12.25;;;9.75;;
15381;SDS011;7789;51.364;12.358;2022-09-11T13:41:12;14.15;;;8.52;;
15381;SDS011;7789;51.364;12.358;2022-09-11T13:46:20;7.90;;;6.88;;
15381;SDS011;7789;51.364;12.358;2022-09-11T13:51:28;8.35;;;7.07;;
15381;SDS011;7789;51.364;12.358;2022-09-11T13:56:36;9.55;;;8.30;;
15381;SDS011;7789;51.364;12.358;2022-09-11T14:01:49;8.27;;;6.70;;
15381;SDS011;7789;51.364;12.358;2022-09-11T14:07:00;8.90;;;5.80;;
15381;SDS011;7789;51.364;12.358;2022-09-11T14:12:03;8.88;;;6.82;;
15381;SDS011;7789;51.364;12.358;2022-09-11T14:17:09;7.80;;;6.55;;
15381;SDS011;7789;51.364;12.358;2022-09-11T14:22:19;7.85;;;5.68;;
15381;SDS011;7789;51.364;12.358;2022-09-11T14:27:35;6.57;;;4.80;;
15381;SDS011;7789;51.364;12.358;2022-09-11T14:32:45;7.22;;;5.22;;
15381;SDS011;7789;51.364;12.358;2022-09-11T14:37:49;5.05;;;4.53;;
15381;SDS011;7789;51.364;12.358;2022-09-11T14:42:53;6.38;;;5.03;;
15381;SDS011;7789;51.364;12.358;2022-09-11T14:47:56;6.50;;;4.50;;
15381;SDS011;7789;51.364;12.358;2022-09-11T14:53:02;7.32;;;4.97;;
15381;SDS011;7789;51.364;12.358;2022-09-11T14:58:06;6.07;;;5.20;;
15381;SDS011;7789;51.364;12.358;2022-09-11T15:03:10;6.57;;;4.68;;
15381;SDS011;7789;51.364;12.358;2022-09-11T15:08:16;6.32;;;4.90;;
15381;SDS011;7789;51.364;12.358;2022-09-11T15:13:19;6.18;;;4.40;;
15381;SDS011;7789;51.364;12.358;2022-09-11T15:18:24;6.32;;;4.68;;
15381;SDS011;7789;51.364;12.358;2022-09-11T15:23:29;6.53;;;4.55;;
15381;SDS011;7789;51.364;12.358;2022-09-11T15:28:39;7.38;;;4.80;;
15381;SDS011;7789;51.364;12.358;2022-09-11T15:33:44;5.78;;;4.55;;
15381;SDS011;7789;51.364;12.358;2022-09-11T15:38:54;5.60;;;4.65;;
15381;SDS011;7789;51.364;12.358;2022-09-11T15:43:58;4.90;;;3.58;;
15381;SDS011;7789;51.364;12.358;2022-09-11T15:49:02;5.65;;;4.20;;
15381;SDS011;7789;51.364;12.358;2022-09-11T15:54:09;6.05;;;3.92;;
15381;SDS011;7789;51.364;12.358;2022-09-11T15:59:14;4.70;;;3.70;;
15381;SDS011;7789;51.364;12.358;2022-09-11T16:04:23;5.10;;;3.30;;
15381;SDS011;7789;51.364;12.358;2022-09-11T16:09:31;4.07;;;3.47;;
15381;SDS011;7789;51.364;12.358;2022-09-11T16:14:36;4.25;;;3.53;;
15381;SDS011;7789;51.364;12.358;2022-09-11T16:19:39;4.38;;;3.20;;
15381;SDS011;7789;51.364;12.358;2022-09-11T16:24:45;3.78;;;3.05;;
15381;SDS011;7789;51.364;12.358;2022-09-11T16:29:49;3.20;;;2.90;;
15381;SDS011;7789;51.364;12.358;2022-09-11T16:35:13;3.85;;;3.10;;
15381;SDS011;7789;51.364;12.358;2022-09-11T16:40:19;4.95;;;2.92;;
15381;SDS011;7789;51.364;12.358;2022-09-11T16:45:22;6.72;;;3.10;;
15381;SDS011;7789;51.364;12.358;2022-09-11T16:50:26;4.82;;;3.03;;
15381;SDS011;7789;51.364;12.358;2022-09-11T16:55:30;3.25;;;2.95;;
15381;SDS011;7789;51.364;12.358;2022-09-11T17:00:34;3.95;;;3.08;;
15381;SDS011;7789;51.364;12.358;2022-09-11T17:05:44;2.95;;;2.42;;
15381;SDS011;7789;51.364;12.358;2022-09-11T17:10:53;4.18;;;2.85;;
15381;SDS011;7789;51.364;12.358;2022-09-11T17:16:00;3.40;;;3.10;;
15381;SDS011;7789;51.364;12.358;2022-09-11T17:21:05;3.90;;;3.03;;
15381;SDS011;7789;51.364;12.358;2022-09-11T17:26:12;4.50;;;3.35;;
15381;SDS011;7789;51.364;12.358;2022-09-11T17:31:18;4.53;;;3.63;;
15381;SDS011;7789;51.364;12.358;2022-09-11T17:36:25;3.92;;;3.50;;
15381;SDS011;7789;51.364;12.358;2022-09-11T17:41:31;5.07;;;3.80;;
15381;SDS011;7789;51.364;12.358;2022-09-11T17:46:36;4.88;;;4.20;;
15381;SDS011;7789;51.364;12.358;2022-09-11T17:51:39;5.18;;;4.60;;
15381;SDS011;7789;51.364;12.358;2022-09-11T17:56:45;4.85;;;4.07;;
15381;SDS011;7789;51.364;12.358;2022-09-11T18:01:48;5.47;;;4.20;;
15381;SDS011;7789;51.364;12.358;2022-09-11T18:06:51;6.43;;;4.32;;
15381;SDS011;7789;51.364;12.358;2022-09-11T18:11:59;4.72;;;3.80;;
15381;SDS011;7789;51.364;12.358;2022-09-11T18:17:10;4.97;;;4.47;;
15381;SDS011;7789;51.364;12.358;2022-09-11T18:22:14;5.53;;;4.50;;
15381;SDS011;7789;51.364;12.358;2022-09-11T18:27:22;5.30;;;4.22;;
15381;SDS011;7789;51.364;12.358;2022-09-11T18:32:26;7.88;;;6.05;;
15381;SDS011;7789;51.364;12.358;2022-09-11T18:37:33;6.50;;;5.18;;
15381;SDS011;7789;51.364;12.358;2022-09-11T18:42:41;7.88;;;5.35;;
15381;SDS011;7789;51.364;12.358;2022-09-11T18:47:46;5.65;;;4.47;;
15381;SDS011;7789;51.364;12.358;2022-09-11T18:52:55;6.45;;;4.65;;
15381;SDS011;7789;51.364;12.358;2022-09-11T18:58:02;5.20;;;4.70;;
15381;SDS011;7789;51.364;12.358;2022-09-11T19:03:09;5.68;;;4.53;;
15381;SDS011;7789;51.364;12.358;2022-09-11T19:08:23;5.50;;;4.90;;
15381;SDS011;7789;51.364;12.358;2022-09-11T19:13:28;6.82;;;5.25;;
15381;SDS011;7789;51.364;12.358;2022-09-11T19:18:37;8.40;;;5.47;;
15381;SDS011;7789;51.364;12.358;2022-09-11T19:23:46;7.60;;;5.70;;
15381;SDS011;7789;51.364;12.358;2022-09-11T19:28:53;7.43;;;6.38;;
15381;SDS011;7789;51.364;12.358;2022-09-11T19:34:01;9.27;;;6.45;;
15381;SDS011;7789;51.364;12.358;2022-09-11T19:39:08;9.13;;;6.38;;
15381;SDS011;7789;51.364;12.358;2022-09-11T19:44:14;7.18;;;6.30;;
15381;SDS011;7789;51.364;12.358;2022-09-11T19:49:19;6.80;;;5.88;;
15381;SDS011;7789;51.364;12.358;2022-09-11T19:54:23;7.50;;;5.70;;
15381;SDS011;7789;51.364;12.358;2022-09-11T19:59:28;6.57;;;5.97;;
15381;SDS011;7789;51.364;12.358;2022-09-11T20:04:34;8.10;;;6.25;;
15381;SDS011;7789;51.364;12.358;2022-09-11T20:09:38;8.77;;;6.10;;
15381;SDS011;7789;51.364;12.358;2022-09-11T20:14:45;6.93;;;5.72;;
15381;SDS011;7789;51.364;12.358;2022-09-11T20:19:49;7.65;;;6.85;;
15381;SDS011;7789;51.364;12.358;2022-09-11T20:24:54;7.35;;;6.65;;
15381;SDS011;7789;51.364;12.358;2022-09-11T20:30:03;8.50;;;6.03;;
15381;SDS011;7789;51.364;12.358;2022-09-11T20:35:09;7.55;;;6.03;;
15381;SDS011;7789;51.364;12.358;2022-09-11T20:40:14;6.80;;;6.10;;
15381;SDS011;7789;51.364;12.358;2022-09-11T20:45:22;7.60;;;6.80;;
15381;SDS011;7789;51.364;12.358;2022-09-11T20:50:31;7.75;;;5.57;;
15381;SDS011;7789;51.364;12.358;2022-09-11T20:55:36;7.97;;;5.43;;
15381;SDS011;7789;51.364;12.358;2022-09-11T21:00:43;6.35;;;4.90;;
15381;SDS011;7789;51.364;12.358;2022-09-11T21:05:49;5.97;;;4.90;;
15381;SDS011;7789;51.364;12.358;2022-09-11T21:10:53;5.50;;;5.00;;
15381;SDS011;7789;51.364;12.358;2022-09-11T21:15:58;6.47;;;5.00;;
15381;SDS011;7789;51.364;12.358;2022-09-11T21:21:01;6.38;;;5.22;;
15381;SDS011;7789;51.364;12.358;2022-09-11T21:26:06;6.80;;;5.13;;
15381;SDS011;7789;51.364;12.358;2022-09-11T21:31:11;7.38;;;5.65;;
15381;SDS011;7789;51.364;12.358;2022-09-11T21:36:15;7.47;;;5.72;;
15381;SDS011;7789;51.364;12.358;2022-09-11T21:41:19;6.75;;;5.32;;
15381;SDS011;7789;51.364;12.358;2022-09-11T21:46:24;6.88;;;5.05;;
15381;SDS011;7789;51.364;12.358;2022-09-11T21:51:29;7.45;;;5.38;;
15381;SDS011;7789;51.364;12.358;2022-09-11T21:56:32;5.68;;;5.15;;
15381;SDS011;7789;51.364;12.358;2022-09-11T22:01:37;8.70;;;5.85;;
15381;SDS011;7789;51.364;12.358;2022-09-11T22:06:40;7.28;;;6.43;;
15381;SDS011;7789;51.364;12.358;2022-09-11T22:11:44;6.63;;;5.88;;
15381;SDS011;7789;51.364;12.358;2022-09-11T22:16:48;7.55;;;5.80;;
15381;SDS011;7789;51.364;12.358;2022-09-11T22:21:52;7.65;;;6.13;;
15381;SDS011;7789;51.364;12.358;2022-09-11T22:26:55;9.35;;;7.55;;
15381;SDS011;7789;51.364;12.358;2022-09-11T22:32:00;6.82;;;6.13;;
15381;SDS011;7789;51.364;12.358;2022-09-11T22:37:04;7.25;;;6.50;;
15381;SDS011;7789;51.364;12.358;2022-09-11T22:42:08;7.13;;;6.43;;
15381;SDS011;7789;51.364;12.358;2022-09-11T22:47:13;8.23;;;6.07;;
15381;SDS011;7789;51.364;12.358;2022-09-11T22:52:16;6.70;;;6.03;;
15381;SDS011;7789;51.364;12.358;2022-09-11T22:57:20;6.50;;;5.90;;
15381;SDS011;7789;51.364;12.358;2022-09-11T23:02:24;6.93;;;5.93;;
15381;SDS011;7789;51.364;12.358;2022-09-11T23:07:28;7.63;;;6.15;;
15381;SDS011;7789;51.364;12.358;2022-09-11T23:12:31;9.55;;;6.80;;
15381;SDS011;7789;51.364;12.358;2022-09-11T23:17:37;8.75;;;6.90;;
15381;SDS011;7789;51.364;12.358;2022-09-11T23:22:40;7.50;;;6.80;;
15381;SDS011;7789;51.364;12.358;2022-09-11T23:27:44;7.10;;;6.32;;
15381;SDS011;7789;51.364;12.358;2022-09-11T23:32:51;7.20;;;6.40;;
15381;SDS011;7789;51.364;12.358;2022-09-11T23:37:55;9.68;;;7.15;;
15381;SDS011;7789;51.364;12.358;2022-09-11T23:42:59;8.50;;;6.95;;
15381;SDS011;7789;51.364;12.358;2022-09-11T23:48:05;9.07;;;6.85;;
15381;SDS011;7789;51.364;12.358;2022-09-11T23:53:08;8.20;;;6.80;;
15381;SDS011;7789;51.364;12.358;2022-09-11T23:58:11;8.32;;;7.10;;
